Warning: Javascript must be enabled to use all the features on this page!


Page Loading - Please Wait...

Click to hideNews Bulletins
Click to hide state-specific text

Welcome to the NWIS-Web for the Arizona Water Science Center


The majority of USGS Gaging Stations are funded though a cooperative program between the USGS other interested agencies.
Follow this link for information on the Cooperative Water Program with the USGS.


Threatened and Endangered USGS Gaging Stations in Arizona
Colorado Basin River Forecast Center - provided by the National Weather Service, AHPS. CBRFC on Google Maps.
Arizona Water Science Center Home Page

USGS 09471000 SAN PEDRO RIVER AT CHARLESTON, AZ.

PROVISIONAL DATA SUBJECT TO REVISION

Click to hidestation-specific text
Station operated in cooperation with Cochise County, the Bureau of Land Management, and the Arizona Department of Water Resources.

HIGH DATA RATE (Site data are transmitted & updated hourly)
rainfall Arrow
This station managed by the Tucson Field Office; USGS, AZ-WSC.

Available Parameters Available Period
All 4 Available Parameters for this site
  
00065 Gage height [Radar Stage Sensor] 2014-07-26  2014-11-23
00065 Gage height [Bubbler Stage Sensor] 2007-10-01  2014-11-23
00060 Discharge 2007-10-01  2014-11-23
00045 Precipitation 2014-07-26  2014-11-23

Graph
Graph w/ stats
Graph w/o stats
Graph w/ (up to 3) parms
Table
Tab-separated
Days  (7)
 

  -- or --
Begin date
 

End date
 

Summary of all available data for this site
Instantaneous-data availability statement






Date / Time




Gage
height,
feet,
[Radar
Stage
Sensor]




Gage
height,
feet,
[Bubbler
Stage
Sensor]




Dis-
charge,
ft3/s,



Precip-
itation
total,
inches,
11/16/2014 00:00 MST2.32P  2.44P  23.8P  0.00P  
11/16/2014 00:15 MST2.32P  2.43P  23.8P  0.00P  
11/16/2014 00:30 MST2.32P  2.41P  23.8P  0.00P  
11/16/2014 00:45 MST2.32P  2.43P  23.8P  0.00P  
11/16/2014 01:00 MST2.32P  2.41P  23.8P  0.00P  
11/16/2014 01:15 MST2.32P  2.40P  23.8P  0.00P  
11/16/2014 01:30 MST2.32P  2.42P  23.8P  0.00P  
11/16/2014 01:45 MST2.32P  2.45P  23.8P  0.00P  
11/16/2014 02:00 MST2.32P  2.46P  23.8P  0.00P  
11/16/2014 02:15 MST2.31P  2.43P  23.1P  0.00P  
11/16/2014 02:30 MST2.31P  2.40P  23.1P  0.00P  
11/16/2014 02:45 MST2.32P  2.44P  23.8P  0.00P  
11/16/2014 03:00 MST2.32P  2.42P  23.8P  0.00P  
11/16/2014 03:15 MST2.33P  2.43P  24.5P  0.00P  
11/16/2014 03:30 MST2.31P  2.44P  23.1P  0.00P  
11/16/2014 03:45 MST2.31P  2.43P  23.1P  0.00P  
11/16/2014 04:00 MST2.32P  2.42P  23.8P  0.00P  
11/16/2014 04:15 MST2.32P  2.42P  23.8P  0.00P  
11/16/2014 04:30 MST2.32P  2.44P  23.8P  0.00P  
11/16/2014 04:45 MST2.32P  2.43P  23.8P  0.00P  
11/16/2014 05:00 MST2.32P  2.43P  23.8P  0.00P  
11/16/2014 05:15 MST2.32P  2.44P  23.8P  0.00P  
11/16/2014 05:30 MST2.32P  2.42P  23.8P  0.00P  
11/16/2014 05:45 MST2.32P  2.44P  23.8P  0.00P  
11/16/2014 06:00 MST2.32P  2.44P  23.8P  0.00P  
11/16/2014 06:15 MST2.32P  2.43P  23.8P  0.00P  
11/16/2014 06:30 MST2.32P  2.44P  23.8P  0.00P  
11/16/2014 06:45 MST2.33P  2.42P  24.5P  0.00P  
11/16/2014 07:00 MST2.31P  2.42P  23.1P  0.00P  
11/16/2014 07:15 MST2.31P  2.43P  23.1P  0.00P  
11/16/2014 07:30 MST2.33P  2.44P  24.5P  0.00P  
11/16/2014 07:45 MST2.32P  2.42P  23.8P  0.00P  
11/16/2014 08:00 MST2.33P  2.43P  24.5P  0.00P  
11/16/2014 08:15 MST2.33P  2.43P  24.5P  0.00P  
11/16/2014 08:30 MST2.32P  2.43P  23.8P  0.00P  
11/16/2014 08:45 MST2.30P  2.44P  22.4P  0.00P  
11/16/2014 09:00 MST2.28P  2.44P  21.1P  0.00P  
11/16/2014 09:15 MST2.31P  2.44P  23.1P  0.00P  
11/16/2014 09:30 MST2.31P  2.44P  23.1P  0.00P  
11/16/2014 09:45 MST2.31P  2.44P  23.1P  0.00P  
11/16/2014 10:00 MST2.32P  2.44P  23.8P  0.00P  
11/16/2014 10:15 MST2.32P  2.44P  23.8P  0.00P  
11/16/2014 10:30 MST2.31P  2.43P  23.1P  0.00P  
11/16/2014 10:45 MST2.32P  2.43P  23.8P  0.00P  
11/16/2014 11:00 MST2.30P  2.44P  22.4P  0.00P  
11/16/2014 11:15 MST2.31P  2.43P  23.1P  0.00P  
11/16/2014 11:30 MST2.30P  2.43P  22.4P  0.00P  
11/16/2014 11:45 MST2.26P  2.43P  19.8P  0.00P  
11/16/2014 12:00 MST2.28P  2.44P  21.1P  0.00P  
11/16/2014 12:15 MST2.29P  2.43P  21.7P  0.00P  
11/16/2014 12:30 MST2.28P  2.44P  21.1P  0.00P  
11/16/2014 12:45 MST2.30P  2.44P  22.4P  0.00P  
11/16/2014 13:00 MST2.28P  2.45P  21.1P  0.00P  
11/16/2014 13:15 MST2.29P  2.43P  21.7P  0.00P  
11/16/2014 13:30 MST2.30P  2.43P  22.4P  0.00P  
11/16/2014 13:45 MST2.30P  2.44P  22.4P  0.00P  
11/16/2014 14:00 MST2.32P  2.43P  23.8P  0.00P  
11/16/2014 14:15 MST2.31P  2.43P  23.1P  0.00P  
11/16/2014 14:30 MST2.32P  2.42P  23.8P  0.00P  
11/16/2014 14:45 MST2.31P  2.43P  23.1P  0.00P  
11/16/2014 15:00 MST2.29P  2.44P  21.7P  0.00P  
11/16/2014 15:15 MST2.31P  2.42P  23.1P  0.00P  
11/16/2014 15:30 MST2.31P  2.43P  23.1P  0.00P  
11/16/2014 15:45 MST2.31P  2.43P  23.1P  0.00P  
11/16/2014 16:00 MST2.32P  2.42P  23.8P  0.00P  
11/16/2014 16:15 MST2.32P  2.44P  23.8P  0.00P  
11/16/2014 16:30 MST2.31P  2.44P  23.1P  0.00P  
11/16/2014 16:45 MST2.32P  2.43P  23.8P  0.00P  
11/16/2014 17:00 MST2.30P  2.42P  22.4P  0.00P  
11/16/2014 17:15 MST2.31P  2.44P  23.1P  0.00P  
11/16/2014 17:30 MST2.30P  2.44P  22.4P  0.00P  
11/16/2014 17:45 MST2.32P  2.42P  23.8P  0.00P  
11/16/2014 18:00 MST2.30P  2.44P  22.4P  0.00P  
11/16/2014 18:15 MST2.31P  2.44P  23.1P  0.00P  
11/16/2014 18:30 MST2.32P  2.43P  23.8P  0.00P  
11/16/2014 18:45 MST2.32P  2.44P  23.8P  0.00P  
11/16/2014 19:00 MST2.30P  2.43P  22.4P  0.00P  
11/16/2014 19:15 MST2.31P  2.42P  23.1P  0.00P  
11/16/2014 19:30 MST2.32P  2.43P  23.8P  0.00P  
11/16/2014 19:45 MST2.31P  2.42P  23.1P  0.00P  
11/16/2014 20:00 MST2.31P  2.43P  23.1P  0.00P  
11/16/2014 20:15 MST2.31P  2.42P  23.1P  0.00P  
11/16/2014 20:30 MST2.32P  2.42P  23.8P  0.00P  
11/16/2014 20:45 MST2.31P  2.41P  23.1P  0.00P  
11/16/2014 21:00 MST2.31P  2.43P  23.1P  0.00P  
11/16/2014 21:15 MST2.31P  2.42P  23.1P  0.00P  
11/16/2014 21:30 MST2.31P  2.42P  23.1P  0.00P  
11/16/2014 21:45 MST2.32P  2.43P  23.8P  0.00P  
11/16/2014 22:00 MST2.31P  2.42P  23.1P  0.00P  
11/16/2014 22:15 MST2.31P  2.42P  23.1P  0.00P  
11/16/2014 22:30 MST2.31P  2.43P  23.1P  0.00P  
11/16/2014 22:45 MST2.30P  2.43P  22.4P  0.00P  
11/16/2014 23:00 MST2.31P  2.42P  23.1P  0.00P  
11/16/2014 23:15 MST2.32P  2.42P  23.8P  0.00P  
11/16/2014 23:29 MST2.32P  2.43P  23.8P  0.00P  
11/16/2014 23:30 MST2.32P  2.43P  23.8P  0.00P  
11/16/2014 23:44 MST2.30P  2.42P  22.4P  0.00P  
11/16/2014 23:45 MST2.30P  2.42P  22.4P  0.00P  
11/17/2014 00:00 MST2.31P  2.42P  23.1P  0.00P  
11/17/2014 00:15 MST2.31P  2.41P  23.1P  0.00P  
11/17/2014 00:30 MST2.29P  2.44P  21.7P  0.00P  
11/17/2014 00:45 MST2.31P  2.42P  23.1P  0.00P  
11/17/2014 01:00 MST2.30P  2.42P  22.4P  0.00P  
11/17/2014 01:15 MST2.32P  2.43P  23.8P  0.00P  
11/17/2014 01:30 MST2.32P  2.42P  23.8P  0.00P  
11/17/2014 01:45 MST2.32P  2.42P  23.8P  0.00P  
11/17/2014 02:00 MST2.32P  2.41P  23.8P  0.00P  
11/17/2014 02:15 MST2.32P  2.42P  23.8P  0.00P  
11/17/2014 02:30 MST2.31P  2.41P  23.1P  0.00P  
11/17/2014 02:45 MST2.31P  2.43P  23.1P  0.00P  
11/17/2014 03:00 MST2.32P  2.41P  23.8P  0.00P  
11/17/2014 03:15 MST2.30P  2.43P  22.4P  0.00P  
11/17/2014 03:30 MST2.31P  2.43P  23.1P  0.00P  
11/17/2014 03:45 MST2.32P  2.42P  23.8P  0.00P  
11/17/2014 04:00 MST2.32P  2.42P  23.8P  0.00P  
11/17/2014 04:15 MST2.31P  2.41P  23.1P  0.00P  
11/17/2014 04:30 MST2.30P  2.42P  22.4P  0.00P  
11/17/2014 04:45 MST2.32P  2.43P  23.8P  0.00P  
11/17/2014 05:00 MST2.31P  2.42P  23.1P  0.00P  
11/17/2014 05:15 MST2.31P  2.43P  23.1P  0.00P  
11/17/2014 05:30 MST2.32P  2.42P  23.8P  0.00P  
11/17/2014 05:45 MST2.31P  2.42P  23.1P  0.00P  
11/17/2014 06:00 MST2.31P  2.42P  23.1P  0.00P  
11/17/2014 06:15 MST2.31P  2.43P  23.1P  0.00P  
11/17/2014 06:30 MST2.32P  2.42P  23.8P  0.00P  
11/17/2014 06:45 MST2.32P  2.42P  23.8P  0.00P  
11/17/2014 07:00 MST2.31P  2.42P  23.1P  0.00P  
11/17/2014 07:15 MST2.31P  2.41P  23.1P  0.00P  
11/17/2014 07:30 MST2.31P  2.41P  23.1P  0.00P  
11/17/2014 07:45 MST2.31P  2.42P  23.1P  0.00P  
11/17/2014 08:00 MST2.31P  2.41P  23.1P  0.00P  
11/17/2014 08:15 MST2.32P  2.41P  23.8P  0.00P  
11/17/2014 08:30 MST2.30P  2.41P  22.4P  0.00P  
11/17/2014 08:45 MST2.30P  2.42P  22.4P  0.00P  
11/17/2014 09:00 MST2.31P  2.42P  23.1P  0.00P  
11/17/2014 09:15 MST2.31P  2.42P  23.1P  0.00P  
11/17/2014 09:30 MST2.31P  2.43P  23.1P  0.00P  
11/17/2014 09:45 MST2.32P  2.43P  23.8P  0.00P  
11/17/2014 10:00 MST2.32P  2.43P  23.8P  0.00P  
11/17/2014 10:15 MST2.31P  2.42P  23.1P  0.00P  
11/17/2014 10:30 MST2.30P  2.42P  22.4P  0.00P  
11/17/2014 10:45 MST2.32P  2.44P  23.8P  0.00P  
11/17/2014 11:00 MST2.31P  2.43P  23.1P  0.00P  
11/17/2014 11:15 MST2.31P  2.43P  23.1P  0.00P  
11/17/2014 11:30 MST2.31P  2.42P  23.1P  0.00P  
11/17/2014 11:45 MST2.31P  2.42P  23.1P  0.00P  
11/17/2014 12:00 MST2.30P  2.42P  22.4P  0.00P  
11/17/2014 12:15 MST2.30P  2.41P  22.4P  0.00P  
11/17/2014 12:30 MST2.31P  2.44P  23.1P  0.00P  
11/17/2014 12:45 MST2.31P  2.43P  23.1P  0.00P  
11/17/2014 13:00 MST2.31P  2.44P  23.1P  0.00P  
11/17/2014 13:15 MST2.31P  2.43P  23.1P  0.00P  
11/17/2014 13:30 MST2.30P  2.40P  22.4P  0.00P  
11/17/2014 13:45 MST2.31P  2.43P  23.1P  0.00P  
11/17/2014 14:00 MST2.31P  2.43P  23.1P  0.00P  
11/17/2014 14:15 MST2.32P  2.44P  23.8P  0.00P  
11/17/2014 14:30 MST2.31P  2.43P  23.1P  0.00P  
11/17/2014 14:45 MST2.31P  2.41P  23.1P  0.00P  
11/17/2014 15:00 MST2.30P  2.43P  22.4P  0.00P  
11/17/2014 15:15 MST2.31P  2.43P  23.1P  0.00P  
11/17/2014 15:30 MST2.31P  2.43P  23.1P  0.00P  
11/17/2014 15:45 MST2.31P  2.43P  23.1P  0.00P  
11/17/2014 16:00 MST2.32P  2.44P  23.8P  0.00P  
11/17/2014 16:15 MST2.32P  2.44P  23.8P  0.00P  
11/17/2014 16:30 MST2.33P  2.44P  24.5P  0.00P  
11/17/2014 16:45 MST2.32P  2.44P  23.8P  0.00P  
11/17/2014 17:00 MST2.32P  2.44P  23.8P  0.00P  
11/17/2014 17:15 MST2.31P  2.41P  23.1P  0.00P  
11/17/2014 17:30 MST2.31P  2.41P  23.1P  0.00P  
11/17/2014 17:45 MST2.32P  2.42P  23.8P  0.00P  
11/17/2014 18:00 MST2.32P  2.43P  23.8P  0.00P  
11/17/2014 18:15 MST2.31P  2.44P  23.1P  0.00P  
11/17/2014 18:30 MST2.33P  2.43P  24.5P  0.00P  
11/17/2014 18:45 MST2.32P  2.45P  23.8P  0.00P  
11/17/2014 19:00 MST2.32P  2.44P  23.8P  0.00P  
11/17/2014 19:15 MST2.31P  2.45P  23.1P  0.00P  
11/17/2014 19:30 MST2.31P  2.41P  23.1P  0.00P  
11/17/2014 19:45 MST2.32P  2.44P  23.8P  0.00P  
11/17/2014 20:00 MST2.31P  2.43P  23.1P  0.00P  
11/17/2014 20:15 MST2.32P  2.43P  23.8P  0.00P  
11/17/2014 20:30 MST2.31P  2.45P  23.1P  0.00P  
11/17/2014 20:45 MST2.32P  2.43P  23.8P  0.00P  
11/17/2014 21:00 MST2.31P  2.44P  23.1P  0.00P  
11/17/2014 21:15 MST2.31P  2.41P  23.1P  0.00P  
11/17/2014 21:30 MST2.32P  2.41P  23.8P  0.00P  
11/17/2014 21:45 MST2.31P  2.41P  23.1P  0.00P  
11/17/2014 22:00 MST2.31P  2.42P  23.1P  0.00P  
11/17/2014 22:15 MST2.31P  2.41P  23.1P  0.00P  
11/17/2014 22:30 MST2.31P  2.42P  23.1P  0.00P  
11/17/2014 22:45 MST2.32P  2.42P  23.8P  0.00P  
11/17/2014 23:00 MST2.32P  2.41P  23.8P  0.00P  
11/17/2014 23:15 MST2.31P  2.42P  23.1P  0.00P  
11/17/2014 23:29 MST2.31P  2.44P  23.1P  0.00P  
11/17/2014 23:30 MST2.31P  2.44P  23.1P  0.00P  
11/17/2014 23:44 MST2.32P  2.42P  23.8P  0.00P  
11/17/2014 23:45 MST2.32P  2.42P  23.8P  0.00P  
11/18/2014 00:00 MST2.32P  2.42P  23.8P  0.00P  
11/18/2014 00:15 MST2.32P  2.41P  23.8P  0.00P  
11/18/2014 00:30 MST2.32P  2.42P  23.8P  0.00P  
11/18/2014 00:45 MST2.32P  2.44P  23.8P  0.00P  
11/18/2014 01:00 MST2.32P  2.45P  23.8P  0.00P  
11/18/2014 01:15 MST2.32P  2.46P  23.8P  0.00P  
11/18/2014 01:30 MST2.31P  2.44P  23.1P  0.00P  
11/18/2014 01:45 MST2.31P  2.42P  23.1P  0.00P  
11/18/2014 02:00 MST2.31P  2.42P  23.1P  0.00P  
11/18/2014 02:15 MST2.33P  2.43P  24.5P  0.00P  
11/18/2014 02:30 MST2.32P  2.43P  23.8P  0.00P  
11/18/2014 02:45 MST2.32P  2.43P  23.8P  0.00P  
11/18/2014 03:00 MST2.32P  2.48P  23.8P  0.00P  
11/18/2014 03:15 MST2.32P  2.46P  23.8P  0.00P  
11/18/2014 03:30 MST2.32P  2.48P  23.8P  0.00P  
11/18/2014 03:45 MST2.32P  2.47P  23.8P  0.00P  
11/18/2014 04:00 MST2.32P  2.48P  23.8P  0.00P  
11/18/2014 04:15 MST2.32P  2.48P  23.8P  0.00P  
11/18/2014 04:30 MST2.32P  2.43P  23.8P  0.00P  
11/18/2014 04:45 MST2.32P  2.44P  23.8P  0.00P  
11/18/2014 05:00 MST2.32P  2.44P  23.8P  0.00P  
11/18/2014 05:15 MST2.32P  2.44P  23.8P  0.00P  
11/18/2014 05:30 MST2.31P  2.46P  23.1P  0.00P  
11/18/2014 05:45 MST2.31P  2.47P  23.1P  0.00P  
11/18/2014 06:00 MST2.31P  2.47P  23.1P  0.00P  
11/18/2014 06:15 MST2.32P  2.46P  23.8P  0.00P  
11/18/2014 06:30 MST2.32P  2.48P  23.8P  0.00P  
11/18/2014 06:45 MST2.31P  2.47P  23.1P  0.00P  
11/18/2014 07:00 MST2.32P  2.47P  23.8P  0.00P  
11/18/2014 07:15 MST2.31P  2.48P  23.1P  0.00P  
11/18/2014 07:30 MST2.32P  2.46P  23.8P  0.00P  
11/18/2014 07:45 MST2.31P  2.47P  23.1P  0.00P  
11/18/2014 08:00 MST2.30P  2.47P  22.4P  0.00P  
11/18/2014 08:15 MST2.31P  2.46P  23.1P  0.00P  
11/18/2014 08:30 MST2.31P  2.48P  23.1P  0.00P  
11/18/2014 08:45 MST2.32P  2.47P  23.8P  0.00P  
11/18/2014 09:00 MST2.31P  2.46P  23.1P  0.00P  
11/18/2014 09:15 MST2.31P  2.48P  23.1P  0.00P  
11/18/2014 09:30 MST2.31P  2.48P  23.1P  0.00P  
11/18/2014 09:45 MST2.31P  2.46P  23.1P  0.00P  
11/18/2014 10:00 MST2.32P  2.48P  23.8P  0.00P  
11/18/2014 10:15 MST2.33P  2.48P  24.5P  0.00P  
11/18/2014 10:30 MST2.32P  2.46P  23.8P  0.00P  
11/18/2014 10:45 MST2.32P  2.46P  23.8P  0.00P  
11/18/2014 11:00 MST2.31P  2.47P  23.1P  0.00P  
11/18/2014 11:15 MST2.32P  2.48P  23.8P  0.00P  
11/18/2014 11:30 MST2.32P  2.48P  23.8P  0.00P  
11/18/2014 11:45 MST2.31P  2.48P  23.1P  0.00P  
11/18/2014 12:00 MST2.32P  2.46P  23.8P  0.00P  
11/18/2014 12:15 MST2.32P  2.46P  23.8P  0.00P  
11/18/2014 12:30 MST2.33P  2.45P  24.5P  0.00P  
11/18/2014 12:45 MST2.31P  2.48P  23.1P  0.00P  
11/18/2014 13:00 MST2.32P  2.46P  23.8P  0.00P  
11/18/2014 13:15 MST2.32P  2.48P  23.8P  0.00P  
11/18/2014 13:30 MST2.32P  2.48P  23.8P  0.00P  
11/18/2014 13:45 MST2.32P  2.48P  23.8P  0.00P  
11/18/2014 14:00 MST2.32P  2.47P  23.8P  0.00P  
11/18/2014 14:15 MST2.32P  2.49P  23.8P  0.00P  
11/18/2014 14:30 MST2.32P  2.48P  23.8P  0.00P  
11/18/2014 14:45 MST2.32P  2.43P  23.8P  0.00P  
11/18/2014 15:00 MST2.32P  2.47P  23.8P  0.00P  
11/18/2014 15:15 MST2.32P  2.48P  23.8P  0.00P  
11/18/2014 15:30 MST2.31P  2.48P  23.1P  0.00P  
11/18/2014 15:45 MST2.32P  2.48P  23.8P  0.00P  
11/18/2014 16:00 MST2.31P  2.48P  23.1P  0.00P  
11/18/2014 16:15 MST2.31P  2.48P  23.1P  0.00P  
11/18/2014 16:30 MST2.31P  2.47P  23.1P  0.00P  
11/18/2014 16:45 MST2.32P  2.47P  23.8P  0.00P  
11/18/2014 17:00 MST2.32P  2.46P  23.8P  0.00P  
11/18/2014 17:15 MST2.31P  2.45P  23.1P  0.00P  
11/18/2014 17:30 MST2.31P  2.45P  23.1P  0.00P  
11/18/2014 17:45 MST2.31P  2.43P  23.1P  0.00P  
11/18/2014 18:00 MST2.31P  2.48P  23.1P  0.00P  
11/18/2014 18:15 MST2.31P  2.48P  23.1P  0.00P  
11/18/2014 18:30 MST2.31P  2.46P  23.1P  0.00P  
11/18/2014 18:45 MST2.31P  2.47P  23.1P  0.00P  
11/18/2014 19:00 MST2.32P  2.47P  23.8P  0.00P  
11/18/2014 19:15 MST2.31P  2.47P  23.1P  0.00P  
11/18/2014 19:30 MST2.31P  2.47P  23.1P  0.00P  
11/18/2014 19:45 MST2.31P  2.46P  23.1P  0.00P  
11/18/2014 20:00 MST2.31P  2.48P  23.1P  0.00P  
11/18/2014 20:15 MST2.31P  2.44P  23.1P  0.00P  
11/18/2014 20:30 MST2.31P  2.49P  23.1P  0.00P  
11/18/2014 20:45 MST2.32P  2.48P  23.8P  0.00P  
11/18/2014 21:00 MST2.31P  2.45P  23.1P  0.00P  
11/18/2014 21:15 MST2.31P  2.48P  23.1P  0.00P  
11/18/2014 21:30 MST2.31P  2.47P  23.1P  0.00P  
11/18/2014 21:45 MST2.31P  2.46P  23.1P  0.00P  
11/18/2014 22:00 MST2.30P  2.49P  22.4P  0.00P  
11/18/2014 22:15 MST2.31P  2.48P  23.1P  0.00P  
11/18/2014 22:30 MST2.30P  2.48P  22.4P  0.00P  
11/18/2014 22:45 MST2.31P  2.48P  23.1P  0.00P  
11/18/2014 23:00 MST2.31P  2.48P  23.1P  0.00P  
11/18/2014 23:15 MST2.32P  2.47P  23.8P  0.00P  
11/18/2014 23:29 MST2.32P  2.48P  23.8P  0.00P  
11/18/2014 23:30 MST2.32P  2.48P  23.8P  0.00P  
11/18/2014 23:44 MST2.31P  2.46P  23.1P  0.00P  
11/18/2014 23:45 MST2.31P  2.46P  23.1P  0.00P  
11/19/2014 00:00 MST2.31P  2.48P  23.1P  0.00P  
11/19/2014 00:15 MST2.31P  2.48P  23.1P  0.00P  
11/19/2014 00:30 MST2.32P  2.48P  23.8P  0.00P  
11/19/2014 00:45 MST2.31P  2.49P  23.1P  0.00P  
11/19/2014 01:00 MST2.31P  2.48P  23.1P  0.00P  
11/19/2014 01:15 MST2.32P  2.49P  23.8P  0.00P  
11/19/2014 01:30 MST2.32P  2.47P  23.8P  0.00P  
11/19/2014 01:45 MST2.32P  2.46P  23.8P  0.00P  
11/19/2014 02:00 MST2.32P  2.48P  23.8P  0.00P  
11/19/2014 02:15 MST2.31P  2.47P  23.1P  0.00P  
11/19/2014 02:30 MST2.31P  2.46P  23.1P  0.00P  
11/19/2014 02:45 MST2.32P  2.47P  23.8P  0.00P  
11/19/2014 03:00 MST2.31P  2.48P  23.1P  0.00P  
11/19/2014 03:15 MST2.32P  2.45P  23.8P  0.00P  
11/19/2014 03:30 MST2.32P  2.47P  23.8P  0.00P  
11/19/2014 03:45 MST2.31P  2.46P  23.1P  0.00P  
11/19/2014 04:00 MST2.31P  2.48P  23.1P  0.00P  
11/19/2014 07:00 MST2.32P  2.45P  23.8P  0.00P  
11/19/2014 07:15 MST2.32P  2.45P  23.8P  0.00P  
11/19/2014 07:30 MST2.32P  2.47P  23.8P  0.00P  
11/19/2014 07:45 MST2.32P  2.44P  23.8P  0.00P  
11/19/2014 08:00 MST2.31P  2.44P  23.1P  0.00P  
11/19/2014 08:15 MST2.32P  2.45P  23.8P  0.00P  
11/19/2014 08:30 MST2.31P  2.47P  23.1P  0.00P  
11/19/2014 08:45 MST2.31P  2.47P  23.1P  0.00P  
11/19/2014 09:00 MST2.32P  2.45P  23.8P  0.00P  
11/19/2014 09:15 MST2.31P  2.48P  23.1P  0.00P  
11/19/2014 09:30 MST2.31P  2.46P  23.1P  0.00P  
11/19/2014 09:45 MST2.31P  2.47P  23.1P  0.00P  
11/19/2014 10:00 MST2.32P  2.47P  23.8P  0.00P  
11/19/2014 10:15 MST2.32P  2.48P  23.8P  0.00P  
11/19/2014 10:30 MST2.33P  2.45P  24.5P  0.00P  
11/19/2014 10:45 MST2.32P  2.48P  23.8P  0.00P  
11/19/2014 11:00 MST2.32P  2.48P  23.8P  0.00P  
11/19/2014 11:15 MST2.32P  2.48P  23.8P  0.00P  
11/19/2014 11:30 MST2.32P  2.46P  23.8P  0.00P  
11/19/2014 11:45 MST2.32P  2.48P  23.8P  0.00P  
11/19/2014 12:00 MST2.32P  2.47P  23.8P  0.00P  
11/19/2014 12:15 MST2.32P  2.48P  23.8P  0.00P  
11/19/2014 12:30 MST2.32P  2.46P  23.8P  0.00P  
11/19/2014 12:45 MST2.32P  2.46P  23.8P  0.00P  
11/19/2014 13:00 MST2.32P  2.48P  23.8P  0.00P  
11/19/2014 13:15 MST2.31P  2.45P  23.1P  0.00P  
11/19/2014 13:30 MST2.32P  2.48P  23.8P  0.00P  
11/19/2014 13:45 MST2.32P  2.45P  23.8P  0.00P  
11/19/2014 14:00 MST2.31P  2.48P  23.1P  0.00P  
11/19/2014 14:15 MST2.31P  2.48P  23.1P  0.00P  
11/19/2014 14:30 MST2.32P  2.47P  23.8P  0.00P  
11/19/2014 14:45 MST2.31P  2.48P  23.1P  0.00P  
11/19/2014 15:00 MST2.32P  2.45P  23.8P  0.00P  
11/19/2014 15:15 MST2.31P  2.45P  23.1P  0.00P  
11/19/2014 15:30 MST2.31P  2.45P  23.1P  0.00P  
11/19/2014 15:45 MST2.31P  2.46P  23.1P  0.00P  
11/19/2014 16:00 MST2.32P  2.46P  23.8P  0.00P  
11/19/2014 16:15 MST2.31P  2.47P  23.1P  0.00P  
11/19/2014 16:30 MST2.31P  2.45P  23.1P  0.00P  
11/19/2014 16:45 MST2.31P  2.47P  23.1P  0.00P  
11/19/2014 17:00 MST2.30P  2.46P  22.4P  0.00P  
11/19/2014 17:15 MST2.31P  2.46P  23.1P  0.00P  
11/19/2014 17:30 MST2.31P  2.48P  23.1P  0.00P  
11/19/2014 17:45 MST2.31P  2.48P  23.1P  0.00P  
11/19/2014 18:00 MST2.31P  2.48P  23.1P  0.00P  
11/19/2014 18:15 MST2.31P  2.45P  23.1P  0.00P  
11/19/2014 18:30 MST2.31P  2.47P  23.1P  0.00P  
11/19/2014 18:45 MST2.32P  2.46P  23.8P  0.00P  
11/19/2014 19:00 MST2.32P  2.45P  23.8P  0.00P  
11/19/2014 19:15 MST2.31P  2.48P  23.1P  0.00P  
11/19/2014 19:30 MST2.32P  2.48P  23.8P  0.00P  
11/19/2014 19:45 MST2.31P  2.48P  23.1P  0.00P  
11/19/2014 20:00 MST2.31P  2.47P  23.1P  0.00P  
11/19/2014 20:15 MST2.32P  2.48P  23.8P  0.00P  
11/19/2014 20:30 MST2.31P  2.46P  23.1P  0.00P  
11/19/2014 20:45 MST2.32P  2.47P  23.8P  0.00P  
11/19/2014 21:00 MST2.31P  2.47P  23.1P  0.00P  
11/19/2014 21:15 MST2.31P  2.47P  23.1P  0.00P  
11/19/2014 21:30 MST2.32P  2.47P  23.8P  0.00P  
11/19/2014 21:45 MST2.32P  2.47P  23.8P  0.00P  
11/19/2014 22:00 MST2.32P  2.46P  23.8P  0.00P  
11/19/2014 22:15 MST2.32P  2.48P  23.8P  0.00P  
11/19/2014 22:30 MST2.32P  2.44P  23.8P  0.00P  
11/19/2014 22:45 MST2.31P  2.48P  23.1P  0.00P  
11/19/2014 23:00 MST2.31P  2.47P  23.1P  0.00P  
11/19/2014 23:15 MST2.31P  2.44P  23.1P  0.00P  
11/19/2014 23:29 MST2.32P  2.47P  23.8P  0.00P  
11/19/2014 23:30 MST2.32P  2.47P  23.8P  0.00P  
11/19/2014 23:44 MST2.31P  2.45P  23.1P  0.00P  
11/19/2014 23:45 MST2.31P  2.45P  23.1P  0.00P  
11/20/2014 00:00 MST2.31P  2.48P  23.8P  0.00P  
11/20/2014 00:15 MST2.31P  2.44P  23.8P  0.00P  
11/20/2014 00:30 MST2.31P  2.45P  23.8P  0.00P  
11/20/2014 00:45 MST2.32P  2.44P  24.6P  0.00P  
11/20/2014 01:00 MST2.31P  2.47P  23.8P  0.00P  
11/20/2014 01:15 MST2.32P  2.48P  24.6P  0.00P  
11/20/2014 01:30 MST2.31P  2.46P  23.8P  0.00P  
11/20/2014 01:45 MST2.30P  2.45P  23.0P  0.00P  
11/20/2014 02:00 MST2.31P  2.46P  23.8P  0.00P  
11/20/2014 02:15 MST2.31P  2.46P  23.8P  0.00P  
11/20/2014 02:30 MST2.31P  2.47P  23.8P  0.00P  
11/20/2014 02:45 MST2.31P  2.48P  23.8P  0.00P  
11/20/2014 03:00 MST2.33P  2.48P  25.4P  0.00P  
11/20/2014 03:15 MST2.32P  2.48P  24.6P  0.00P  
11/20/2014 03:30 MST2.31P  2.48P  23.8P  0.00P  
11/20/2014 03:45 MST2.31P  2.48P  23.8P  0.00P  
11/20/2014 04:00 MST2.33P  2.48P  25.4P  0.00P  
11/20/2014 06:15 MST2.30P  2.45P  23.0P  0.00P  
11/20/2014 06:30 MST2.31P  2.47P  23.8P  0.00P  
11/20/2014 06:45 MST2.31P  2.46P  23.8P  0.00P  
11/20/2014 07:00 MST2.31P  2.46P  23.8P  0.00P  
11/20/2014 07:15 MST2.33P  2.48P  25.4P  0.00P  
11/20/2014 07:30 MST2.32P  2.49P  24.6P  0.00P  
11/20/2014 07:45 MST2.32P  2.49P  24.6P  0.00P  
11/20/2014 08:00 MST2.32P  2.47P  24.6P  0.00P  
11/20/2014 08:15 MST2.32P  2.49P  24.6P  0.00P  
11/20/2014 08:30 MST2.32P  2.47P  24.6P  0.00P  
11/20/2014 08:45 MST2.32P  2.49P  24.6P  0.00P  
11/20/2014 09:00 MST2.32P  2.49P  24.6P  0.00P  
11/20/2014 09:15 MST2.31P  2.49P  23.8P  0.00P  
11/20/2014 09:30 MST2.32P  2.44P  24.6P  0.00P  
11/20/2014 09:45 MST2.30P  2.48P  23.0P  0.00P  
11/20/2014 10:00 MST2.30P  2.49P  23.0P  0.00P  
11/20/2014 10:15 MST2.31P  2.46P  23.8P  0.00P  
11/20/2014 10:30 MST2.31P  2.48P  23.8P  0.00P  
11/20/2014 10:45 MST2.31P  2.49P  23.8P  0.00P  
11/20/2014 11:00 MST2.31P  2.47P  23.8P  0.00P  
11/20/2014 11:15 MST2.32P  2.46P  24.6P  0.00P  
11/20/2014 11:30 MST2.31P  2.46P  23.8P  0.00P  
11/20/2014 11:45 MST2.31P  2.49P  23.8P  0.00P  
11/20/2014 12:00 MST2.31P  2.47P  23.8P  0.00P  
11/20/2014 12:15 MST2.31P  2.48P  23.8P  0.00P  
11/20/2014 12:30 MST2.31P  2.49P  23.8P  0.00P  
11/20/2014 12:45 MST2.32P  2.48P  24.6P  0.00P  
11/20/2014 13:00 MST2.32P  2.49P  24.6P  0.00P  
11/20/2014 13:15 MST2.31P  2.49P  23.8P  0.00P  
11/20/2014 13:30 MST2.32P  2.47P  24.6P  0.00P  
11/20/2014 13:45 MST2.32P  2.49P  24.6P  0.00P  
11/20/2014 14:00 MST2.29P  2.48P  22.2P  0.00P  
11/20/2014 14:15 MST2.32P  2.49P  24.6P  0.00P  
11/20/2014 14:30 MST2.31P  2.49P  23.8P  0.00P  
11/20/2014 14:45 MST2.31P  2.50P  23.8P  0.00P  
11/20/2014 15:00 MST2.31P  2.49P  23.8P  0.00P  
11/20/2014 15:15 MST2.30P  2.49P  23.0P  0.00P  
11/20/2014 15:30 MST2.31P  2.49P  23.8P  0.00P  
11/20/2014 15:45 MST2.31P  2.49P  23.8P  0.00P  
11/20/2014 16:00 MST2.31P  2.49P  23.8P  0.00P  
11/20/2014 16:15 MST2.31P  2.48P  23.8P  0.00P  
11/20/2014 16:30 MST2.30P  2.46P  23.0P  0.00P  
11/20/2014 16:45 MST2.30P  2.48P  23.0P  0.00P  
11/20/2014 17:00 MST2.30P  2.48P  23.0P  0.00P  
11/20/2014 17:15 MST2.32P  2.47P  24.6P  0.00P  
11/20/2014 17:30 MST2.31P  2.48P  23.8P  0.00P  
11/20/2014 17:45 MST2.30P  2.49P  23.0P  0.00P  
11/20/2014 18:00 MST2.29P  2.48P  22.2P  0.00P  
11/20/2014 18:15 MST2.30P  2.48P  23.0P  0.00P  
11/20/2014 18:30 MST2.31P  2.48P  23.8P  0.00P  
11/20/2014 18:45 MST2.32P  2.49P  24.6P  0.00P  
11/20/2014 19:00 MST2.31P  2.47P  23.8P  0.00P  
11/20/2014 19:15 MST2.30P  2.49P  23.0P  0.00P  
11/20/2014 19:30 MST2.30P  2.49P  23.0P  0.00P  
11/20/2014 19:45 MST2.30P  2.48P  23.0P  0.00P  
11/20/2014 20:00 MST2.28P  2.47P  21.4P  0.00P  
11/20/2014 20:15 MST2.29P  2.48P  22.2P  0.00P  
11/20/2014 20:30 MST2.30P  2.48P  23.0P  0.00P  
11/20/2014 20:45 MST2.30P  2.49P  23.0P  0.00P  
11/20/2014 21:00 MST2.30P  2.49P  23.0P  0.00P  
11/20/2014 21:15 MST2.29P  2.48P  22.2P  0.00P  
11/20/2014 21:30 MST2.30P  2.48P  23.0P  0.00P  
11/20/2014 21:45 MST2.29P  2.48P  22.2P  0.00P  
11/20/2014 22:00 MST2.32P  2.48P  24.6P  0.00P  
11/20/2014 22:15 MST2.30P  2.46P  23.0P  0.00P  
11/20/2014 22:30 MST2.29P  2.48P  22.2P  0.00P  
11/20/2014 22:45 MST2.29P  2.47P  22.2P  0.00P  
11/20/2014 23:00 MST2.31P  2.48P  23.8P  0.00P  
11/20/2014 23:15 MST2.31P  2.47P  23.8P  0.00P  
11/20/2014 23:29 MST2.30P  2.46P  23.0P  0.00P  
11/20/2014 23:30 MST2.30P  2.46P  23.0P  0.00P  
11/20/2014 23:44 MST2.30P  2.47P  23.0P  0.00P  
11/20/2014 23:45 MST2.30P  2.47P  23.0P  0.00P  
11/21/2014 00:00 MST2.31P  2.48P  23.8P  0.00P  
11/21/2014 00:15 MST2.30P  2.48P  23.0P  0.00P  
11/21/2014 00:30 MST2.29P  2.48P  22.2P  0.00P  
11/21/2014 00:45 MST2.30P  2.48P  23.0P  0.00P  
11/21/2014 01:00 MST2.30P  2.46P  23.0P  0.00P  
11/21/2014 01:15 MST2.32P  2.47P  24.6P  0.00P  
11/21/2014 01:30 MST2.31P  2.46P  23.8P  0.00P  
11/21/2014 01:45 MST2.29P  2.46P  22.2P  0.00P  
11/21/2014 02:00 MST2.29P  2.46P  22.2P  0.00P  
11/21/2014 02:15 MST2.29P  2.46P  22.2P  0.00P  
11/21/2014 02:30 MST2.30P  2.47P  23.0P  0.00P  
11/21/2014 02:45 MST2.31P  2.48P  23.8P  0.00P  
11/21/2014 03:00 MST2.30P  2.48P  23.0P  0.00P  
11/21/2014 03:15 MST2.30P  2.46P  23.0P  0.00P  
11/21/2014 03:30 MST2.32P  2.46P  24.6P  0.00P  
11/21/2014 03:45 MST2.31P  2.48P  23.8P  0.00P  
11/21/2014 04:00 MST2.30P  2.48P  23.0P  0.00P  
11/21/2014 04:15 MST2.30P  2.48P  23.0P  0.00P  
11/21/2014 04:30 MST2.32P  2.48P  24.6P  0.00P  
11/21/2014 04:45 MST2.29P  2.46P  22.2P  0.00P  
11/21/2014 05:00 MST2.30P  2.47P  23.0P  0.00P  
11/21/2014 05:15 MST2.29P  2.48P  22.2P  0.00P  
11/21/2014 05:30 MST2.30P  2.47P  23.0P  0.00P  
11/21/2014 05:45 MST2.29P  2.48P  22.2P  0.00P  
11/21/2014 06:00 MST2.28P  2.47P  21.4P  0.00P  
11/21/2014 06:15 MST2.29P  2.46P  22.2P  0.00P  
11/21/2014 06:30 MST2.30P  2.47P  23.0P  0.00P  
11/21/2014 06:45 MST2.29P  2.48P  22.2P  0.00P  
11/21/2014 07:00 MST2.30P  2.47P  23.0P  0.00P  
11/21/2014 07:15 MST2.30P  2.48P  23.0P  0.00P  
11/21/2014 07:30 MST2.30P  2.46P  23.0P  0.00P  
11/21/2014 07:45 MST2.30P  2.48P  23.0P  0.00P  
11/21/2014 08:00 MST2.29P  2.47P  22.2P  0.00P  
11/21/2014 08:15 MST2.29P  2.47P  22.2P  0.00P  
11/21/2014 08:30 MST2.30P  2.48P  23.0P  0.00P  
11/21/2014 08:45 MST2.29P  2.47P  22.2P  0.00P  
11/21/2014 09:00 MST2.30P  2.47P  23.0P  0.00P  
11/21/2014 09:15 MST2.29P  2.46P  22.2P  0.00P  
11/21/2014 09:30 MST2.31P  2.45P  23.8P  0.00P  
11/21/2014 09:45 MST2.32P  2.48P  24.6P  0.00P  
11/21/2014 10:00 MST2.28P  2.48P  21.4P  0.00P  
11/21/2014 10:15 MST2.31P  2.46P  23.8P  0.00P  
11/21/2014 10:30 MST2.31P  2.48P  23.8P  0.00P  
11/21/2014 10:45 MST2.31P  2.48P  23.8P  0.00P  
11/21/2014 11:00 MST2.30P  2.48P  23.0P  0.00P  
11/21/2014 11:15 MST2.32P  2.48P  24.6P  0.00P  
11/21/2014 11:30 MST2.31P  2.46P  23.8P  0.00P  
11/21/2014 11:45 MST2.31P  2.48P  23.8P  0.00P  
11/21/2014 12:00 MST2.30P  2.48P  23.0P  0.00P  
11/21/2014 12:15 MST2.28P  2.48P  21.4P  0.00P  
11/21/2014 12:30 MST2.27P  2.48P  20.7P  0.00P  
11/21/2014 12:45 MST2.30P  2.47P  23.0P  0.00P  
11/21/2014 13:00 MST2.30P  2.48P  23.0P  0.00P  
11/21/2014 13:15 MST2.29P  2.49P  22.2P  0.00P  
11/21/2014 13:30 MST2.30P  2.46P  23.0P  0.00P  
11/21/2014 13:45 MST2.32P  2.48P  24.6P  0.00P  
11/21/2014 14:00 MST2.31P  2.48P  23.8P  0.00P  
11/21/2014 14:15 MST2.32P  2.48P  24.6P  0.00P  
11/21/2014 14:30 MST2.31P  2.49P  23.8P  0.00P  
11/21/2014 14:45 MST2.31P  2.47P  23.8P  0.00P  
11/21/2014 15:00 MST2.30P  2.48P  23.0P  0.00P  
11/21/2014 15:15 MST2.32P  2.48P  24.6P  0.00P  
11/21/2014 15:30 MST2.31P  2.48P  23.8P  0.00P  
11/21/2014 15:45 MST2.29P  2.47P  22.2P  0.00P  
11/21/2014 16:00 MST2.29P  2.48P  22.2P  0.00P  
11/21/2014 16:15 MST2.31P  2.47P  23.8P  0.00P  
11/21/2014 16:30 MST2.30P  2.48P  23.0P  0.00P  
11/21/2014 16:45 MST2.30P  2.46P  23.0P  0.00P  
11/21/2014 17:00 MST2.30P  2.48P  23.0P  0.00P  
11/21/2014 17:15 MST2.30P  2.48P  23.0P  0.00P  
11/21/2014 17:30 MST2.30P  2.48P  23.0P  0.00P  
11/21/2014 17:45 MST2.31P  2.48P  23.8P  0.00P  
11/21/2014 18:00 MST2.30P  2.48P  23.0P  0.00P  
11/21/2014 18:15 MST2.30P  2.47P  23.0P  0.00P  
11/21/2014 18:30 MST2.30P  2.46P  23.0P  0.00P  
11/21/2014 18:45 MST2.31P  2.47P  23.8P  0.00P  
11/21/2014 19:00 MST2.31P  2.48P  23.8P  0.00P  
11/21/2014 19:15 MST2.29P  2.47P  22.2P  0.00P  
11/21/2014 19:30 MST2.30P  2.46P  23.0P  0.00P  
11/21/2014 19:45 MST2.30P  2.46P  23.0P  0.00P  
11/21/2014 20:00 MST2.29P  2.47P  22.2P  0.00P  
11/21/2014 20:15 MST2.30P  2.47P  23.0P  0.00P  
11/21/2014 20:30 MST2.29P  2.48P  22.2P  0.00P  
11/21/2014 20:45 MST2.30P  2.48P  23.0P  0.00P  
11/21/2014 21:00 MST2.30P  2.48P  23.0P  0.00P  
11/21/2014 21:15 MST2.30P  2.47P  23.0P  0.00P  
11/21/2014 21:30 MST2.30P  2.48P  23.0P  0.00P  
11/21/2014 21:45 MST2.31P  2.46P  23.8P  0.00P  
11/21/2014 22:00 MST2.30P  2.46P  23.0P  0.00P  
11/21/2014 22:15 MST2.30P  2.47P  23.0P  0.00P  
11/21/2014 22:30 MST2.30P  2.48P  23.0P  0.00P  
11/21/2014 22:45 MST2.30P  2.47P  23.0P  0.00P  
11/21/2014 23:00 MST2.29P  2.48P  22.2P  0.00P  
11/21/2014 23:15 MST2.30P  2.47P  23.0P  0.00P  
11/21/2014 23:29 MST2.29P  2.47P  22.2P  0.00P  
11/21/2014 23:30 MST2.29P  2.47P  22.2P  0.00P  
11/21/2014 23:44 MST2.30P  2.47P  23.0P  0.00P  
11/21/2014 23:45 MST2.30P  2.47P  23.0P  0.00P  
11/22/2014 00:00 MST2.29P  2.48P  22.2P  0.00P  
11/22/2014 00:15 MST2.30P  2.47P  23.0P  0.00P  
11/22/2014 00:30 MST2.30P  2.46P  23.0P  0.00P  
11/22/2014 00:45 MST2.30P  2.46P  23.0P  0.00P  
11/22/2014 01:00 MST2.29P  2.47P  22.2P  0.00P  
11/22/2014 01:15 MST2.28P  2.45P  21.4P  0.00P  
11/22/2014 01:30 MST2.29P  2.46P  22.2P  0.00P  
11/22/2014 01:45 MST2.29P  2.47P  22.2P  0.00P  
11/22/2014 02:00 MST2.29P  2.47P  22.2P  0.00P  
11/22/2014 02:15 MST2.28P  2.46P  21.4P  0.00P  
11/22/2014 02:30 MST2.28P  2.47P  21.4P  0.00P  
11/22/2014 02:45 MST2.28P  2.46P  21.4P  0.00P  
11/22/2014 03:00 MST2.30P  2.46P  23.0P  0.00P  
11/22/2014 03:15 MST2.30P  2.48P  23.0P  0.00P  
11/22/2014 03:30 MST2.31P  2.47P  23.8P  0.00P  
11/22/2014 03:45 MST2.32P  2.45P  24.6P  0.00P  
11/22/2014 04:00 MST2.32P  2.47P  24.6P  0.00P  
11/22/2014 04:15 MST2.31P  2.47P  23.8P  0.00P  
11/22/2014 04:30 MST2.30P  2.47P  23.0P  0.00P  
11/22/2014 04:45 MST2.31P  2.46P  23.8P  0.00P  
11/22/2014 05:00 MST2.30P  2.45P  23.0P  0.00P  
11/22/2014 05:15 MST2.31P  2.45P  23.8P  0.00P  
11/22/2014 05:30 MST2.31P  2.46P  23.8P  0.00P  
11/22/2014 05:45 MST2.30P  2.47P  23.0P  0.00P  
11/22/2014 06:00 MST2.30P  2.48P  23.0P  0.00P  
11/22/2014 06:15 MST2.30P  2.46P  23.0P  0.00P  
11/22/2014 06:30 MST2.30P  2.46P  23.0P  0.00P  
11/22/2014 06:45 MST2.31P  2.47P  23.8P  0.00P  
11/22/2014 07:00 MST2.31P  2.45P  23.8P  0.00P  
11/22/2014 07:15 MST2.30P  2.47P  23.0P  0.00P  
11/22/2014 07:30 MST2.31P  2.47P  23.8P  0.00P  
11/22/2014 07:45 MST2.31P  2.46P  23.8P  0.00P  
11/22/2014 08:00 MST2.31P  2.47P  23.8P  0.00P  
11/22/2014 08:15 MST2.31P  2.47P  23.8P  0.00P  
11/22/2014 08:30 MST2.31P  2.47P  23.8P  0.00P  
11/22/2014 08:45 MST2.31P  2.47P  23.8P  0.00P  
11/22/2014 09:00 MST2.32P  2.47P  24.6P  0.00P  
11/22/2014 09:15 MST2.31P  2.47P  23.8P  0.00P  
11/22/2014 09:30 MST2.31P  2.44P  23.8P  0.00P  
11/22/2014 09:45 MST2.30P  2.47P  23.0P  0.00P  
11/22/2014 10:00 MST2.31P  2.47P  23.8P  0.00P  
11/22/2014 10:15 MST2.30P  2.48P  23.0P  0.00P  
11/22/2014 10:30 MST2.31P  2.48P  23.8P  0.00P  
11/22/2014 10:45 MST2.30P  2.47P  23.0P  0.00P  
11/22/2014 11:00 MST2.30P  2.47P  23.0P  0.00P  
11/22/2014 11:15 MST2.30P  2.46P  23.0P  0.00P  
11/22/2014 11:30 MST2.30P  2.46P  23.0P  0.00P  
11/22/2014 11:45 MST2.30P  2.48P  23.0P  0.00P  
11/22/2014 12:00 MST2.29P  2.48P  22.2P  0.00P  
11/22/2014 12:15 MST2.31P  2.47P  23.8P  0.00P  
11/22/2014 12:30 MST2.31P  2.45P  23.8P  0.00P  
11/22/2014 12:45 MST2.31P  2.48P  23.8P  0.00P  
11/22/2014 13:00 MST2.31P  2.47P  23.8P  0.00P  
11/22/2014 13:15 MST2.29P  2.46P  22.2P  0.00P  
11/22/2014 13:30 MST2.29P  2.48P  22.2P  0.00P  
11/22/2014 13:45 MST2.30P  2.45P  23.0P  0.00P  
11/22/2014 14:00 MST2.29P  2.45P  22.2P  0.00P  
11/22/2014 14:15 MST2.29P  2.48P  22.2P  0.00P  
11/22/2014 14:30 MST2.30P  2.45P  23.0P  0.00P  
11/22/2014 14:45 MST2.31P  2.47P  23.8P  0.00P  
11/22/2014 15:00 MST2.31P  2.48P  23.8P  0.00P  
11/22/2014 15:15 MST2.30P  2.45P  23.0P  0.00P  
11/22/2014 15:30 MST2.31P  2.47P  23.8P  0.00P  
11/22/2014 15:45 MST2.30P  2.45P  23.0P  0.00P  
11/22/2014 16:00 MST2.31P  2.45P  23.8P  0.00P  
11/22/2014 16:15 MST2.31P  2.46P  23.8P  0.00P  
11/22/2014 16:30 MST2.30P  2.47P  23.0P  0.00P  
11/22/2014 16:45 MST2.31P  2.48P  23.8P  0.00P  
11/22/2014 17:00 MST2.30P  2.47P  23.0P  0.00P  
11/22/2014 17:15 MST2.30P  2.46P  23.0P  0.00P  
11/22/2014 17:30 MST2.30P  2.48P  23.0P  0.00P  
11/22/2014 17:45 MST2.30P  2.47P  23.0P  0.00P  
11/22/2014 18:00 MST2.31P  2.48P  23.8P  0.00P  
11/22/2014 18:15 MST2.31P  2.45P  23.8P  0.00P  
11/22/2014 18:30 MST2.31P  2.45P  23.8P  0.00P  
11/22/2014 18:45 MST2.29P  2.46P  22.2P  0.00P  
11/22/2014 19:00 MST2.29P  2.48P  22.2P  0.00P  
11/22/2014 19:15 MST2.30P  2.47P  23.0P  0.00P  
11/22/2014 19:30 MST2.30P  2.46P  23.0P  0.00P  
11/22/2014 19:45 MST2.30P  2.48P  23.0P  0.00P  
11/22/2014 20:00 MST2.30P  2.46P  23.0P  0.00P  
11/22/2014 20:15 MST2.30P  2.45P  23.0P  0.00P  
11/22/2014 20:30 MST2.30P  2.48P  23.0P  0.00P  
11/22/2014 20:45 MST2.30P  2.48P  23.0P  0.00P  
11/22/2014 21:00 MST2.29P  2.48P  22.2P  0.00P  
11/22/2014 21:15 MST2.30P  2.47P  23.0P  0.00P  
11/22/2014 21:30 MST2.30P  2.46P  23.0P  0.00P  
11/22/2014 21:45 MST2.30P  2.46P  23.0P  0.00P  
11/22/2014 22:00 MST2.31P  2.47P  23.8P  0.00P  
11/22/2014 22:15 MST2.31P  2.48P  23.8P  0.00P  
11/22/2014 22:30 MST2.31P  2.47P  23.8P  0.00P  
11/22/2014 22:45 MST2.31P  2.45P  23.8P  0.00P  
11/22/2014 23:00 MST2.31P  2.45P  23.8P  0.00P  
11/22/2014 23:15 MST2.31P  2.48P  23.8P  0.00P  
11/22/2014 23:29 MST2.31P  2.47P  23.8P  0.00P  
11/22/2014 23:30 MST2.31P  2.47P  23.8P  0.00P  
11/22/2014 23:44 MST2.31P  2.48P  23.8P  0.00P  
11/22/2014 23:45 MST2.31P  2.48P  23.8P  0.00P  
11/23/2014 00:00 MST2.32P  2.45P  24.6P  0.00P  
11/23/2014 00:15 MST2.30P  2.48P  23.0P  0.00P  
11/23/2014 00:30 MST2.31P  2.46P  23.8P  0.00P  
11/23/2014 00:45 MST2.31P  2.45P  23.8P  0.00P  
11/23/2014 01:00 MST2.31P  2.46P  23.8P  0.00P  
11/23/2014 01:15 MST2.30P  2.48P  23.0P  0.00P  
11/23/2014 01:30 MST2.31P  2.45P  23.8P  0.00P  
11/23/2014 01:45 MST2.31P  2.45P  23.8P  0.00P  
11/23/2014 02:00 MST2.30P  2.46P  23.0P  0.00P  
11/23/2014 02:15 MST2.31P  2.48P  23.8P  0.00P  
11/23/2014 02:30 MST2.30P  2.47P  23.0P  0.00P  
11/23/2014 02:45 MST2.30P  2.47P  23.0P  0.00P  
11/23/2014 03:00 MST2.30P  2.47P  23.0P  0.00P  
11/23/2014 03:15 MST2.30P  2.47P  23.0P  0.00P  
11/23/2014 03:30 MST2.30P  2.47P  23.0P  0.00P  
11/23/2014 03:45 MST2.30P  2.47P  23.0P  0.00P  
11/23/2014 04:00 MST2.30P  2.46P  23.0P  0.00P  
11/23/2014 04:15 MST2.30P  2.46P  23.0P  0.00P  
11/23/2014 04:30 MST2.30P  2.47P  23.0P  0.00P  
11/23/2014 04:45 MST2.30P  2.45P  23.0P  0.00P  
11/23/2014 05:00 MST2.30P  2.46P  23.0P  0.00P  
11/23/2014 05:15 MST2.30P  2.47P  23.0P  0.00P  
11/23/2014 05:30 MST2.30P  2.47P  23.0P  0.00P  
11/23/2014 05:45 MST2.30P  2.46P  23.0P  0.00P  
11/23/2014 06:00 MST2.30P  2.47P  23.0P  0.00P  
11/23/2014 06:15 MST2.30P  2.47P  23.0P  0.00P  
11/23/2014 06:30 MST2.29P  2.46P  22.2P  0.00P  
11/23/2014 06:45 MST2.30P  2.47P  23.0P  0.00P  
11/23/2014 07:00 MST2.30P  2.46P  23.0P  0.00P  
11/23/2014 07:15 MST2.30P  2.47P  23.0P  0.00P  
11/23/2014 07:30 MST2.30P  2.47P  23.0P  0.00P  
11/23/2014 07:45 MST2.30P  2.47P  23.0P  0.00P  
11/23/2014 08:00 MST2.30P  2.46P  23.0P  0.00P  
11/23/2014 08:15 MST2.31P  2.46P  23.8P  0.00P  
11/23/2014 08:30 MST2.30P  2.44P  23.0P  0.00P  
11/23/2014 08:45 MST2.30P  2.45P  23.0P  0.00P  
11/23/2014 09:00 MST2.30P  2.45P  23.0P  0.00P  
11/23/2014 09:15 MST2.30P  2.45P  23.0P  0.00P  
11/23/2014 09:30 MST2.30P  2.47P  23.0P  0.00P  
11/23/2014 09:45 MST2.29P  2.48P  22.2P  0.00P  
11/23/2014 10:00 MST2.30P  2.46P  23.0P  0.00P  
11/23/2014 10:15 MST2.30P  2.48P  23.0P  0.00P  
11/23/2014 10:30 MST2.30P  2.46P  23.0P  0.00P  
11/23/2014 10:45 MST2.29P  2.48P  22.2P  0.00P  
11/23/2014 11:00 MST2.31P  2.47P  23.8P  0.00P  
11/23/2014 11:15 MST2.29P  2.48P  22.2P  0.00P  
11/23/2014 11:30 MST2.30P  2.46P  23.0P  0.00P  
11/23/2014 11:45 MST2.29P  2.47P  22.2P  0.00P  
11/23/2014 12:00 MST2.29P  2.46P  22.2P  0.00P  

Explanation
  P  Provisional data subject to revision.